ARG0410 SABE-SAME
Flight info
| Callsign | ARG0410 |
|---|---|
| Flight time | 1h 34m |
| Altitude | 32000 |
| Route | PAL9 NEPIS DCT NIN UL405 PAPIR |
| Aircraft | B732/M-SDFGHRWY/S |
Departure
| Time | 2026-04-26 22:17 |
|---|---|
| Airport | Aeroparque Jorge Newbery (SABE) |
Arrival
| Time | 2026-04-26 23:51 |
|---|---|
| Airport | Governor Francisco Gabrielli International Airport (SAME) |
| Time | Latitude | Longitude | Altitude | Speed | Heading |
|---|---|---|---|---|---|
| 2026-04-26 21:40 | -34.55887 | -58.41104 | 27 ft | 0 kts | 39° |
| 2026-04-26 22:03 | -34.55886 | -58.41104 | 27 ft | 0 kts | 39° |
| 2026-04-26 22:04 | -34.55891 | -58.41108 | 27 ft | 2 kts | 39° |
| 2026-04-26 22:04 | -34.55899 | -58.41117 | 27 ft | 1 kts | 39° |
| 2026-04-26 22:04 | -34.55911 | -58.41125 | 27 ft | 2 kts | 15° |
| 2026-04-26 22:04 | -34.55926 | -58.41125 | 27 ft | 2 kts | 348° |
| 2026-04-26 22:05 | -34.55939 | -58.41118 | 27 ft | 2 kts | 322° |
| 2026-04-26 22:05 | -34.55946 | -58.41110 | 27 ft | 0 kts | 309° |
| 2026-04-26 22:10 | -34.55931 | -58.41133 | 27 ft | 9 kts | 309° |
| 2026-04-26 22:10 | -34.55880 | -58.41206 | 27 ft | 9 kts | 310° |
| 2026-04-26 22:11 | -34.55873 | -58.41288 | 27 ft | 9 kts | 215° |
| 2026-04-26 22:11 | -34.55933 | -58.41281 | 27 ft | 11 kts | 129° |
| 2026-04-26 22:11 | -34.55985 | -58.41198 | 27 ft | 14 kts | 128° |
| 2026-04-26 22:11 | -34.56053 | -58.41094 | 27 ft | 17 kts | 129° |
| 2026-04-26 22:12 | -34.56105 | -58.41006 | 27 ft | 13 kts | 125° |
| 2026-04-26 22:12 | -34.56160 | -58.40906 | 27 ft | 15 kts | 119° |
| 2026-04-26 22:12 | -34.56176 | -58.40820 | 27 ft | 11 kts | 112° |
| 2026-04-26 22:12 | -34.56223 | -58.40730 | 27 ft | 14 kts | 124° |
| 2026-04-26 22:13 | -34.56281 | -58.40628 | 27 ft | 16 kts | 123° |
| 2026-04-26 22:13 | -34.56355 | -58.40525 | 27 ft | 16 kts | 139° |
| 2026-04-26 22:13 | -34.56408 | -58.40468 | 27 ft | 0 kts | 139° |
| 2026-04-26 22:15 | -34.56421 | -58.40454 | 27 ft | 6 kts | 139° |
| 2026-04-26 22:15 | -34.56471 | -58.40399 | 27 ft | 13 kts | 136° |
| 2026-04-26 22:15 | -34.56537 | -58.40382 | 27 ft | 11 kts | 198° |
| 2026-04-26 22:15 | -34.56551 | -58.40457 | 27 ft | 5 kts | 307° |
| 2026-04-26 22:16 | -34.56545 | -58.40469 | 27 ft | 0 kts | 305° |
| 2026-04-26 22:16 | -34.56538 | -58.40481 | 27 ft | 12 kts | 304° |
| 2026-04-26 22:16 | -34.56369 | -58.40783 | 27 ft | 75 kts | 302° |
| 2026-04-26 22:16 | -34.55973 | -58.41525 | 28 ft | 133 kts | 302° |
| 2026-04-26 22:17 | -34.55338 | -58.42558 | 140 ft | 170 kts | 306° |
| 2026-04-26 22:17 | -34.54530 | -58.43607 | 757 ft | 172 kts | 312° |
| 2026-04-26 22:17 | -34.53673 | -58.44518 | 1553 ft | 165 kts | 324° |
| 2026-04-26 22:17 | -34.52591 | -58.45065 | 1964 ft | 184 kts | 342° |
| 2026-04-26 22:18 | -34.51187 | -58.45052 | 2201 ft | 214 kts | 10° |
| 2026-04-26 22:18 | -34.49893 | -58.44351 | 3161 ft | 202 kts | 27° |
| 2026-04-26 22:18 | -34.48683 | -58.43544 | 3605 ft | 205 kts | 25° |
| 2026-04-26 22:18 | -34.47376 | -58.42569 | 3510 ft | 238 kts | 31° |
| 2026-04-26 22:19 | -34.46100 | -58.41317 | 4250 ft | 232 kts | 41° |
| 2026-04-26 22:19 | -34.44790 | -58.40223 | 4826 ft | 230 kts | 22° |
| 2026-04-26 22:19 | -34.43373 | -58.39588 | 5661 ft | 209 kts | 15° |
| 2026-04-26 22:19 | -34.41961 | -58.39369 | 5983 ft | 213 kts | 347° |
| 2026-04-26 22:20 | -34.40591 | -58.40217 | 5933 ft | 233 kts | 311° |
| 2026-04-26 22:20 | -34.40018 | -58.41302 | 6255 ft | 232 kts | 288° |
| 2026-04-26 22:20 | -34.40020 | -58.43867 | 6826 ft | 238 kts | 253° |
| 2026-04-26 22:20 | -34.40604 | -58.45806 | 7023 ft | 255 kts | 247° |
| 2026-04-26 22:21 | -34.41387 | -58.47744 | 7517 ft | 257 kts | 243° |
| 2026-04-26 22:21 | -34.42049 | -58.49674 | 8294 ft | 247 kts | 255° |
| 2026-04-26 22:21 | -34.42411 | -58.51712 | 8803 ft | 250 kts | 262° |
| 2026-04-26 22:21 | -34.42509 | -58.53844 | 9126 ft | 259 kts | 269° |
| 2026-04-26 22:22 | -34.42500 | -58.56029 | 9599 ft | 263 kts | 270° |
| 2026-04-26 22:22 | -34.42408 | -58.58253 | 10006 ft | 269 kts | 268° |
| 2026-04-26 22:22 | -34.42831 | -58.60517 | 10058 ft | 289 kts | 249° |
| 2026-04-26 22:22 | -34.43474 | -58.62890 | 10266 ft | 301 kts | 255° |
| 2026-04-26 22:23 | -34.43926 | -58.65366 | 10772 ft | 303 kts | 259° |
| 2026-04-26 22:23 | -34.44312 | -58.67899 | 11269 ft | 305 kts | 260° |
| 2026-04-26 22:23 | -34.44679 | -58.70436 | 11739 ft | 308 kts | 260° |
| 2026-04-26 22:23 | -34.45045 | -58.72998 | 12211 ft | 314 kts | 260° |
| 2026-04-26 22:24 | -34.45417 | -58.75608 | 12807 ft | 320 kts | 260° |
| 2026-04-26 22:24 | -34.45796 | -58.78280 | 13431 ft | 325 kts | 260° |
| 2026-04-26 22:24 | -34.46176 | -58.80960 | 14146 ft | 326 kts | 261° |
| 2026-04-26 22:24 | -34.46558 | -58.83645 | 14840 ft | 327 kts | 261° |
| 2026-04-26 22:25 | -34.46944 | -58.86370 | 15482 ft | 329 kts | 261° |
| 2026-04-26 22:25 | -34.47329 | -58.89095 | 16067 ft | 331 kts | 262° |
| 2026-04-26 22:25 | -34.47717 | -58.91854 | 16563 ft | 336 kts | 262° |
| 2026-04-26 22:25 | -34.48111 | -58.94661 | 17026 ft | 342 kts | 263° |
| 2026-04-26 22:26 | -34.48512 | -58.97514 | 17530 ft | 346 kts | 263° |
| 2026-04-26 22:26 | -34.48914 | -59.00385 | 18012 ft | 350 kts | 263° |
| 2026-04-26 22:26 | -34.49320 | -59.03292 | 18461 ft | 354 kts | 264° |
| 2026-04-26 22:26 | -34.49733 | -59.06258 | 18917 ft | 358 kts | 264° |
| 2026-04-26 22:27 | -34.50145 | -59.09217 | 19436 ft | 359 kts | 264° |
| 2026-04-26 22:27 | -34.50558 | -59.12187 | 19939 ft | 360 kts | 264° |
| 2026-04-26 22:27 | -34.50971 | -59.15167 | 20412 ft | 361 kts | 264° |
| 2026-04-26 22:27 | -34.51387 | -59.18168 | 20873 ft | 363 kts | 264° |
| 2026-04-26 22:28 | -34.51803 | -59.21181 | 21333 ft | 365 kts | 264° |
| 2026-04-26 22:28 | -34.52220 | -59.24203 | 21781 ft | 366 kts | 264° |
| 2026-04-26 22:28 | -34.52609 | -59.27266 | 22208 ft | 365 kts | 270° |
| 2026-04-26 22:28 | -34.52466 | -59.30301 | 22617 ft | 362 kts | 280° |
| 2026-04-26 22:29 | -34.52165 | -59.33318 | 23032 ft | 363 kts | 280° |
| 2026-04-26 22:29 | -34.51865 | -59.36354 | 23423 ft | 364 kts | 280° |
| 2026-04-26 22:29 | -34.51567 | -59.39399 | 23798 ft | 366 kts | 280° |
| 2026-04-26 22:29 | -34.51270 | -59.42453 | 24161 ft | 367 kts | 280° |
| 2026-04-26 22:30 | -34.50972 | -59.45514 | 24513 ft | 368 kts | 280° |
| 2026-04-26 22:30 | -34.50671 | -59.48607 | 24858 ft | 369 kts | 280° |
| 2026-04-26 22:30 | -34.50370 | -59.51690 | 25191 ft | 370 kts | 280° |
| 2026-04-26 22:30 | -34.50069 | -59.54778 | 25517 ft | 371 kts | 279° |
| 2026-04-26 22:31 | -34.49765 | -59.57877 | 25835 ft | 372 kts | 279° |
| 2026-04-26 22:31 | -34.49460 | -59.60983 | 26137 ft | 373 kts | 279° |
| 2026-04-26 22:31 | -34.49152 | -59.64102 | 26430 ft | 374 kts | 279° |
| 2026-04-26 22:31 | -34.48844 | -59.67225 | 26727 ft | 375 kts | 280° |
| 2026-04-26 22:32 | -34.48531 | -59.70380 | 27020 ft | 376 kts | 280° |
| 2026-04-26 22:32 | -34.48220 | -59.73517 | 27297 ft | 377 kts | 280° |
| 2026-04-26 22:32 | -34.47907 | -59.76658 | 27571 ft | 378 kts | 280° |
| 2026-04-26 22:32 | -34.47591 | -59.79822 | 27840 ft | 379 kts | 280° |
| 2026-04-26 22:33 | -34.47273 | -59.83004 | 28101 ft | 380 kts | 280° |
| 2026-04-26 22:33 | -34.46636 | -59.89340 | 28586 ft | 381 kts | 280° |
| 2026-04-26 22:33 | -34.46313 | -59.92539 | 28817 ft | 382 kts | 280° |
| 2026-04-26 22:34 | -34.45991 | -59.95724 | 29042 ft | 383 kts | 280° |
| 2026-04-26 22:34 | -34.45667 | -59.98923 | 29260 ft | 384 kts | 280° |
| 2026-04-26 22:34 | -34.45341 | -60.02125 | 29472 ft | 385 kts | 280° |
| 2026-04-26 22:34 | -34.45015 | -60.05328 | 29676 ft | 385 kts | 279° |
| 2026-04-26 22:35 | -34.44685 | -60.08552 | 29876 ft | 386 kts | 279° |
| 2026-04-26 22:35 | -34.44356 | -60.11766 | 30073 ft | 387 kts | 279° |
| 2026-04-26 22:35 | -34.44022 | -60.15012 | 30262 ft | 388 kts | 279° |
| 2026-04-26 22:35 | -34.43690 | -60.18236 | 30441 ft | 388 kts | 279° |
| 2026-04-26 22:36 | -34.43356 | -60.21469 | 30615 ft | 389 kts | 279° |
| 2026-04-26 22:36 | -34.43020 | -60.24709 | 30786 ft | 390 kts | 279° |
| 2026-04-26 22:36 | -34.42683 | -60.27952 | 30954 ft | 390 kts | 279° |
| 2026-04-26 22:36 | -34.42345 | -60.31197 | 31119 ft | 391 kts | 279° |
| 2026-04-26 22:37 | -34.42006 | -60.34450 | 31279 ft | 391 kts | 279° |
| 2026-04-26 22:37 | -34.41663 | -60.37730 | 31436 ft | 392 kts | 279° |
| 2026-04-26 22:37 | -34.41321 | -60.40989 | 31588 ft | 392 kts | 279° |
| 2026-04-26 22:37 | -34.40977 | -60.44254 | 31736 ft | 393 kts | 279° |
| 2026-04-26 22:38 | -34.40632 | -60.47520 | 31880 ft | 393 kts | 279° |
| 2026-04-26 22:38 | -34.40286 | -60.50791 | 32023 ft | 394 kts | 279° |
| 2026-04-26 22:38 | -34.39938 | -60.54074 | 32106 ft | 396 kts | 279° |
| 2026-04-26 22:39 | -34.39230 | -60.60719 | 32103 ft | 398 kts | 279° |
| 2026-04-26 22:39 | -34.38522 | -60.67341 | 32113 ft | 398 kts | 279° |
| 2026-04-26 22:40 | -34.37811 | -60.73950 | 32113 ft | 398 kts | 279° |
| 2026-04-26 22:40 | -34.37099 | -60.80541 | 32111 ft | 396 kts | 279° |
| 2026-04-26 22:41 | -34.36383 | -60.87124 | 32110 ft | 394 kts | 279° |
| 2026-04-26 22:41 | -34.35670 | -60.93654 | 32109 ft | 392 kts | 279° |
| 2026-04-26 22:42 | -34.34956 | -61.00151 | 32106 ft | 390 kts | 279° |
| 2026-04-26 22:42 | -34.34238 | -61.06653 | 32106 ft | 389 kts | 279° |
| 2026-04-26 22:43 | -34.33521 | -61.13123 | 32105 ft | 388 kts | 279° |
| 2026-04-26 22:43 | -34.32802 | -61.19572 | 32106 ft | 389 kts | 279° |
| 2026-04-26 22:44 | -34.32080 | -61.26025 | 32108 ft | 389 kts | 279° |
| 2026-04-26 22:44 | -34.31351 | -61.32508 | 32107 ft | 390 kts | 279° |
| 2026-04-26 22:45 | -34.30619 | -61.38984 | 32107 ft | 390 kts | 279° |
| 2026-04-26 22:45 | -34.29883 | -61.45466 | 32106 ft | 391 kts | 279° |
| 2026-04-26 22:46 | -34.29138 | -61.51985 | 32106 ft | 391 kts | 279° |
| 2026-04-26 22:46 | -34.28394 | -61.58473 | 32105 ft | 391 kts | 279° |
| 2026-04-26 22:47 | -34.27646 | -61.64962 | 32104 ft | 392 kts | 279° |
| 2026-04-26 22:47 | -34.26893 | -61.71466 | 32112 ft | 393 kts | 279° |
| 2026-04-26 22:48 | -34.26131 | -61.78012 | 32112 ft | 394 kts | 279° |
| 2026-04-26 22:48 | -34.25368 | -61.84540 | 32111 ft | 394 kts | 279° |
| 2026-04-26 22:49 | -34.24600 | -61.91075 | 32111 ft | 395 kts | 279° |
| 2026-04-26 22:49 | -34.23824 | -61.97651 | 32110 ft | 396 kts | 279° |
| 2026-04-26 22:50 | -34.23047 | -62.04206 | 32109 ft | 396 kts | 279° |
| 2026-04-26 22:50 | -34.22265 | -62.10772 | 32109 ft | 397 kts | 279° |
| 2026-04-26 22:51 | -34.21477 | -62.17353 | 32109 ft | 397 kts | 279° |
| 2026-04-26 22:51 | -34.20678 | -62.24000 | 32119 ft | 398 kts | 279° |
| 2026-04-26 22:52 | -34.19880 | -62.30609 | 32128 ft | 397 kts | 279° |
| 2026-04-26 22:52 | -34.19081 | -62.37193 | 32137 ft | 397 kts | 279° |
| 2026-04-26 22:53 | -34.18274 | -62.43807 | 32143 ft | 397 kts | 279° |
| 2026-04-26 22:53 | -34.17469 | -62.50384 | 32149 ft | 397 kts | 279° |
| 2026-04-26 22:54 | -34.16661 | -62.56951 | 32157 ft | 397 kts | 279° |
| 2026-04-26 22:54 | -34.15847 | -62.63535 | 32167 ft | 397 kts | 279° |
| 2026-04-26 22:55 | -34.15028 | -62.70130 | 32180 ft | 397 kts | 280° |
| 2026-04-26 22:55 | -34.14210 | -62.76691 | 32181 ft | 397 kts | 280° |
| 2026-04-26 22:56 | -34.13388 | -62.83255 | 32182 ft | 397 kts | 280° |
| 2026-04-26 22:56 | -34.12559 | -62.89841 | 32183 ft | 398 kts | 280° |
| 2026-04-26 22:57 | -34.11727 | -62.96413 | 32183 ft | 398 kts | 279° |
| 2026-04-26 22:57 | -34.10892 | -63.02984 | 32184 ft | 398 kts | 279° |
| 2026-04-26 22:58 | -34.10054 | -63.09560 | 32186 ft | 399 kts | 278° |
| 2026-04-26 22:58 | -34.09350 | -63.15069 | 32187 ft | 399 kts | 278° |
| 2026-04-26 23:00 | -34.06673 | -63.35813 | 32189 ft | 401 kts | 278° |
| 2026-04-26 23:00 | -34.05812 | -63.42426 | 32188 ft | 401 kts | 278° |
| 2026-04-26 23:01 | -34.04946 | -63.49040 | 32187 ft | 401 kts | 278° |
| 2026-04-26 23:01 | -34.04075 | -63.55672 | 32187 ft | 401 kts | 278° |
| 2026-04-26 23:02 | -34.03204 | -63.62273 | 32186 ft | 400 kts | 278° |
| 2026-04-26 23:02 | -34.02328 | -63.68878 | 32194 ft | 400 kts | 279° |
| 2026-04-26 23:03 | -34.01446 | -63.75507 | 32193 ft | 401 kts | 279° |
| 2026-04-26 23:03 | -34.00562 | -63.82117 | 32193 ft | 401 kts | 279° |
| 2026-04-26 23:04 | -33.99676 | -63.88723 | 32192 ft | 402 kts | 279° |
| 2026-04-26 23:04 | -33.98784 | -63.95335 | 32191 ft | 402 kts | 279° |
| 2026-04-26 23:05 | -33.97886 | -64.01975 | 32191 ft | 402 kts | 279° |
| 2026-04-26 23:05 | -33.96987 | -64.08590 | 32190 ft | 402 kts | 279° |
| 2026-04-26 23:06 | -33.96084 | -64.15204 | 32190 ft | 402 kts | 279° |
| 2026-04-26 23:06 | -33.95173 | -64.21850 | 32189 ft | 402 kts | 279° |
| 2026-04-26 23:07 | -33.94263 | -64.28464 | 32189 ft | 402 kts | 279° |
| 2026-04-26 23:07 | -33.93347 | -64.35097 | 32191 ft | 402 kts | 279° |
| 2026-04-26 23:08 | -33.92429 | -64.41713 | 32205 ft | 402 kts | 279° |
| 2026-04-26 23:08 | -33.91502 | -64.48355 | 32219 ft | 402 kts | 280° |
| 2026-04-26 23:09 | -33.90276 | -64.54891 | 32230 ft | 402 kts | 283° |
| 2026-04-26 23:09 | -33.88956 | -64.61422 | 32235 ft | 403 kts | 283° |
| 2026-04-26 23:10 | -33.87607 | -64.67974 | 32245 ft | 403 kts | 283° |
| 2026-04-26 23:10 | -33.86244 | -64.74563 | 32246 ft | 404 kts | 283° |
| 2026-04-26 23:11 | -33.84869 | -64.81175 | 32248 ft | 405 kts | 283° |
| 2026-04-26 23:11 | -33.83474 | -64.87843 | 32246 ft | 406 kts | 282° |
| 2026-04-26 23:12 | -33.82090 | -64.94458 | 32243 ft | 407 kts | 281° |
| 2026-04-26 23:12 | -33.80706 | -65.01055 | 32242 ft | 408 kts | 281° |
| 2026-04-26 23:13 | -33.79321 | -65.07656 | 32244 ft | 409 kts | 280° |
| 2026-04-26 23:13 | -33.77923 | -65.14295 | 32244 ft | 410 kts | 280° |
| 2026-04-26 23:14 | -33.76511 | -65.20971 | 32243 ft | 411 kts | 280° |
| 2026-04-26 23:14 | -33.75092 | -65.27661 | 32243 ft | 413 kts | 280° |
| 2026-04-26 23:15 | -33.73652 | -65.34427 | 32243 ft | 414 kts | 280° |
| 2026-04-26 23:15 | -33.72161 | -65.41101 | 32242 ft | 414 kts | 282° |
| 2026-04-26 23:16 | -33.70595 | -65.47794 | 32242 ft | 415 kts | 282° |
| 2026-04-26 23:16 | -33.69013 | -65.54523 | 32242 ft | 415 kts | 282° |
| 2026-04-26 23:17 | -33.67426 | -65.61250 | 32241 ft | 416 kts | 282° |
| 2026-04-26 23:17 | -33.65850 | -65.67916 | 32247 ft | 417 kts | 282° |
| 2026-04-26 23:18 | -33.64266 | -65.74599 | 32247 ft | 418 kts | 282° |
| 2026-04-26 23:18 | -33.62659 | -65.81356 | 32243 ft | 419 kts | 282° |
| 2026-04-26 23:19 | -33.61056 | -65.88084 | 32234 ft | 419 kts | 282° |
| 2026-04-26 23:19 | -33.59454 | -65.94786 | 32227 ft | 420 kts | 282° |
| 2026-04-26 23:20 | -33.57841 | -66.01517 | 32219 ft | 421 kts | 282° |
| 2026-04-26 23:20 | -33.56201 | -66.08341 | 32218 ft | 422 kts | 282° |
| 2026-04-26 23:21 | -33.54565 | -66.15132 | 32218 ft | 422 kts | 282° |
| 2026-04-26 23:21 | -33.52925 | -66.21923 | 32217 ft | 422 kts | 282° |
| 2026-04-26 23:22 | -33.51272 | -66.28745 | 32217 ft | 422 kts | 282° |
| 2026-04-26 23:22 | -33.49617 | -66.35562 | 32217 ft | 422 kts | 282° |
| 2026-04-26 23:23 | -33.47631 | -66.42244 | 32218 ft | 424 kts | 285° |
| 2026-04-26 23:23 | -33.45597 | -66.48852 | 32216 ft | 425 kts | 286° |
| 2026-04-26 23:24 | -33.43505 | -66.55474 | 32216 ft | 425 kts | 287° |
| 2026-04-26 23:24 | -33.41550 | -66.62110 | 32215 ft | 423 kts | 282° |
| 2026-04-26 23:25 | -33.39914 | -66.68873 | 32222 ft | 423 kts | 283° |
| 2026-04-26 23:25 | -33.38262 | -66.75606 | 32221 ft | 424 kts | 283° |
| 2026-04-26 23:26 | -33.36597 | -66.82360 | 32220 ft | 423 kts | 283° |
| 2026-04-26 23:26 | -33.34764 | -66.89030 | 32120 ft | 427 kts | 288° |
| 2026-04-26 23:26 | -33.33510 | -66.92241 | 31888 ft | 432 kts | 294° |
| 2026-04-26 23:27 | -33.32065 | -66.95403 | 31370 ft | 437 kts | 289° |
| 2026-04-26 23:27 | -33.31359 | -66.98871 | 31013 ft | 426 kts | 271° |
| 2026-04-26 23:27 | -33.31100 | -67.02369 | 30911 ft | 417 kts | 274° |
| 2026-04-26 23:28 | -33.29879 | -67.09000 | 30534 ft | 404 kts | 280° |
| 2026-04-26 23:28 | -33.29134 | -67.12204 | 30225 ft | 400 kts | 280° |
| 2026-04-26 23:28 | -33.28367 | -67.15371 | 29855 ft | 397 kts | 281° |
| 2026-04-26 23:28 | -33.27592 | -67.18511 | 29444 ft | 395 kts | 281° |
| 2026-04-26 23:29 | -33.26816 | -67.21637 | 29040 ft | 393 kts | 281° |
| 2026-04-26 23:29 | -33.26032 | -67.24774 | 28636 ft | 390 kts | 282° |
| 2026-04-26 23:29 | -33.25196 | -67.27836 | 28237 ft | 387 kts | 283° |
| 2026-04-26 23:29 | -33.24346 | -67.30863 | 27836 ft | 383 kts | 284° |
| 2026-04-26 23:30 | -33.23492 | -67.33890 | 27429 ft | 379 kts | 284° |
| 2026-04-26 23:30 | -33.22643 | -67.36889 | 27019 ft | 375 kts | 284° |
| 2026-04-26 23:30 | -33.21806 | -67.39840 | 26610 ft | 371 kts | 285° |
| 2026-04-26 23:30 | -33.20979 | -67.42753 | 26201 ft | 368 kts | 285° |
| 2026-04-26 23:31 | -33.20155 | -67.45648 | 25789 ft | 365 kts | 286° |
| 2026-04-26 23:31 | -33.19348 | -67.48485 | 25379 ft | 361 kts | 286° |
| 2026-04-26 23:31 | -33.18549 | -67.51289 | 24963 ft | 357 kts | 287° |
| 2026-04-26 23:31 | -33.17757 | -67.54061 | 24543 ft | 353 kts | 287° |
| 2026-04-26 23:32 | -33.16971 | -67.56811 | 24118 ft | 350 kts | 287° |
| 2026-04-26 23:32 | -33.16194 | -67.59531 | 23692 ft | 347 kts | 288° |
| 2026-04-26 23:32 | -33.15423 | -67.62226 | 23263 ft | 344 kts | 288° |
| 2026-04-26 23:32 | -33.14651 | -67.64921 | 22828 ft | 341 kts | 288° |
| 2026-04-26 23:33 | -33.13887 | -67.67585 | 22406 ft | 339 kts | 289° |
| 2026-04-26 23:33 | -33.13130 | -67.70225 | 21983 ft | 337 kts | 289° |
| 2026-04-26 23:33 | -33.12377 | -67.72846 | 21561 ft | 335 kts | 290° |
| 2026-04-26 23:33 | -33.11372 | -67.75317 | 21125 ft | 333 kts | 300° |
| 2026-04-26 23:34 | -33.10181 | -67.77664 | 20701 ft | 331 kts | 302° |
| 2026-04-26 23:34 | -33.08955 | -67.79963 | 20279 ft | 330 kts | 302° |
| 2026-04-26 23:34 | -33.07698 | -67.82259 | 19851 ft | 329 kts | 303° |
| 2026-04-26 23:34 | -33.06446 | -67.84517 | 19427 ft | 328 kts | 303° |
| 2026-04-26 23:35 | -33.05180 | -67.86780 | 18998 ft | 327 kts | 303° |
| 2026-04-26 23:35 | -33.03925 | -67.89017 | 18575 ft | 326 kts | 303° |
| 2026-04-26 23:35 | -33.02667 | -67.91251 | 18153 ft | 325 kts | 303° |
| 2026-04-26 23:35 | -33.01413 | -67.93476 | 17734 ft | 325 kts | 303° |
| 2026-04-26 23:36 | -33.00162 | -67.95694 | 17317 ft | 324 kts | 303° |
| 2026-04-26 23:36 | -32.98905 | -67.97920 | 16900 ft | 323 kts | 303° |
| 2026-04-26 23:36 | -32.97657 | -68.00129 | 16488 ft | 323 kts | 303° |
| 2026-04-26 23:36 | -32.96413 | -68.02330 | 16080 ft | 322 kts | 303° |
| 2026-04-26 23:37 | -32.95168 | -68.04531 | 15673 ft | 321 kts | 303° |
| 2026-04-26 23:37 | -32.93926 | -68.06727 | 15270 ft | 321 kts | 303° |
| 2026-04-26 23:37 | -32.92687 | -68.08916 | 14871 ft | 320 kts | 303° |
| 2026-04-26 23:37 | -32.91450 | -68.11098 | 14475 ft | 319 kts | 303° |
| 2026-04-26 23:38 | -32.90209 | -68.13287 | 14171 ft | 315 kts | 303° |
| 2026-04-26 23:38 | -32.88993 | -68.15429 | 13877 ft | 312 kts | 303° |
| 2026-04-26 23:38 | -32.87784 | -68.17559 | 13531 ft | 310 kts | 303° |
| 2026-04-26 23:38 | -32.86585 | -68.19670 | 13173 ft | 309 kts | 303° |
| 2026-04-26 23:39 | -32.85388 | -68.21775 | 12813 ft | 308 kts | 303° |
| 2026-04-26 23:39 | -32.84194 | -68.23876 | 12450 ft | 308 kts | 304° |
| 2026-04-26 23:39 | -32.83003 | -68.25969 | 12093 ft | 307 kts | 304° |
| 2026-04-26 23:39 | -32.81807 | -68.28070 | 11736 ft | 306 kts | 304° |
| 2026-04-26 23:40 | -32.80627 | -68.30139 | 11337 ft | 302 kts | 303° |
| 2026-04-26 23:40 | -32.79463 | -68.32182 | 10822 ft | 299 kts | 303° |
| 2026-04-26 23:40 | -32.78314 | -68.34198 | 10272 ft | 295 kts | 303° |
| 2026-04-26 23:40 | -32.77164 | -68.36214 | 9611 ft | 300 kts | 303° |
| 2026-04-26 23:41 | -32.75991 | -68.38274 | 9145 ft | 304 kts | 303° |
| 2026-04-26 23:41 | -32.74804 | -68.40347 | 8695 ft | 307 kts | 303° |
| 2026-04-26 23:41 | -32.73595 | -68.42461 | 8249 ft | 309 kts | 303° |
| 2026-04-26 23:41 | -32.72390 | -68.44566 | 7863 ft | 308 kts | 303° |
| 2026-04-26 23:42 | -32.71212 | -68.46627 | 7815 ft | 296 kts | 303° |
| 2026-04-26 23:42 | -32.68947 | -68.50584 | 7177 ft | 295 kts | 303° |
| 2026-04-26 23:42 | -32.67785 | -68.52614 | 6688 ft | 302 kts | 303° |
| 2026-04-26 23:43 | -32.66614 | -68.54656 | 6550 ft | 292 kts | 303° |
| 2026-04-26 23:43 | -32.65502 | -68.56569 | 6767 ft | 271 kts | 303° |
| 2026-04-26 23:43 | -32.64522 | -68.58392 | 6799 ft | 259 kts | 302° |
| 2026-04-26 23:43 | -32.63481 | -68.60142 | 6581 ft | 263 kts | 309° |
| 2026-04-26 23:44 | -32.62277 | -68.61761 | 6476 ft | 262 kts | 311° |
| 2026-04-26 23:44 | -32.61257 | -68.63512 | 6359 ft | 260 kts | 294° |
| 2026-04-26 23:44 | -32.60746 | -68.65571 | 6076 ft | 264 kts | 276° |
| 2026-04-26 23:44 | -32.60767 | -68.67730 | 5896 ft | 260 kts | 259° |
| 2026-04-26 23:45 | -32.61325 | -68.69758 | 5642 ft | 258 kts | 242° |
| 2026-04-26 23:45 | -32.62301 | -68.71533 | 5345 ft | 258 kts | 234° |
| 2026-04-26 23:45 | -32.63278 | -68.73278 | 5182 ft | 253 kts | 237° |
| 2026-04-26 23:45 | -32.64151 | -68.75096 | 4755 ft | 252 kts | 244° |
| 2026-04-26 23:46 | -32.64856 | -68.76892 | 4722 ft | 230 kts | 241° |
| 2026-04-26 23:46 | -32.65777 | -68.78302 | 4523 ft | 202 kts | 217° |
| 2026-04-26 23:46 | -32.66862 | -68.78932 | 4464 ft | 157 kts | 194° |
| 2026-04-26 23:46 | -32.67920 | -68.79063 | 4059 ft | 153 kts | 176° |
| 2026-04-26 23:47 | -32.68970 | -68.78919 | 3767 ft | 150 kts | 172° |
| 2026-04-26 23:47 | -32.69974 | -68.78884 | 3578 ft | 142 kts | 183° |
| 2026-04-26 23:47 | -32.70947 | -68.78998 | 3440 ft | 144 kts | 186° |
| 2026-04-26 23:47 | -32.71924 | -68.79109 | 3474 ft | 141 kts | 180° |
| 2026-04-26 23:48 | -32.72899 | -68.79133 | 3483 ft | 141 kts | 181° |
| 2026-04-26 23:48 | -32.73877 | -68.79185 | 3483 ft | 142 kts | 182° |
| 2026-04-26 23:48 | -32.74867 | -68.79231 | 3449 ft | 143 kts | 179° |
| 2026-04-26 23:48 | -32.75866 | -68.79208 | 3406 ft | 146 kts | 177° |
| 2026-04-26 23:49 | -32.76887 | -68.79170 | 3292 ft | 148 kts | 178° |
| 2026-04-26 23:49 | -32.77897 | -68.79187 | 3168 ft | 145 kts | 182° |
| 2026-04-26 23:49 | -32.78902 | -68.79244 | 2911 ft | 145 kts | 178° |
| 2026-04-26 23:49 | -32.79898 | -68.79238 | 2664 ft | 142 kts | 180° |
| 2026-04-26 23:50 | -32.80869 | -68.79257 | 2497 ft | 142 kts | 178° |
| 2026-04-26 23:50 | -32.81855 | -68.79277 | 2344 ft | 141 kts | 178° |
| 2026-04-26 23:50 | -32.82750 | -68.79287 | 2324 ft | 113 kts | 178° |
| 2026-04-26 23:50 | -32.83404 | -68.79292 | 2329 ft | 69 kts | 180° |
| 2026-04-26 23:51 | -32.83844 | -68.79298 | 2329 ft | 54 kts | 180° |
| 2026-04-26 23:51 | -32.84069 | -68.79335 | 2329 ft | 19 kts | 249° |
| 2026-04-26 23:51 | -32.84060 | -68.79382 | 2329 ft | 1 kts | 282° |
| 2026-04-26 23:51 | -32.84051 | -68.79432 | 2329 ft | 10 kts | 281° |
| 2026-04-26 23:52 | -32.84037 | -68.79521 | 2329 ft | 0 kts | 278° |
| 2026-04-26 23:52 | -32.84028 | -68.79536 | 2330 ft | 9 kts | 327° |
| 2026-04-26 23:52 | -32.83937 | -68.79529 | 2329 ft | 15 kts | 5° |
| 2026-04-26 23:53 | -32.83828 | -68.79522 | 2329 ft | 9 kts | 1° |
| 2026-04-26 23:53 | -32.83752 | -68.79518 | 2329 ft | 13 kts | 3° |
| 2026-04-26 23:53 | -32.83681 | -68.79517 | 2329 ft | 10 kts | 0° |
| 2026-04-26 23:53 | -32.83595 | -68.79514 | 2329 ft | 14 kts | 2° |
| 2026-04-26 23:54 | -32.83499 | -68.79514 | 2329 ft | 13 kts | 360° |
| 2026-04-26 23:54 | -32.83394 | -68.79511 | 2329 ft | 17 kts | 3° |
| 2026-04-26 23:54 | -32.83266 | -68.79510 | 2329 ft | 20 kts | 360° |
| 2026-04-26 23:54 | -32.83138 | -68.79508 | 2328 ft | 18 kts | 0° |
| 2026-04-26 23:55 | -32.83013 | -68.79539 | 2326 ft | 16 kts | 321° |
| 2026-04-26 23:55 | -32.82938 | -68.79617 | 2326 ft | 9 kts | 297° |
| 2026-04-26 23:55 | -32.82900 | -68.79674 | 2326 ft | 11 kts | 7° |
| 2026-04-26 23:55 | -32.82840 | -68.79700 | 2326 ft | 10 kts | 333° |
| 2026-04-26 23:56 | -32.82811 | -68.79706 | 2325 ft | 1 kts | 341° |
| 2026-04-26 23:56 | -32.82803 | -68.79739 | 2325 ft | 5 kts | 276° |
| 2026-04-26 23:56 | -32.82802 | -68.79778 | 2325 ft | 0 kts | 272° |